Time;durP1;ratioP1;P1;durP2;ratioP2;P2;SDS_P1;SDS_P2;PMS_P1;PMS_P2;Temp;Humidity;BMP_temperature;BMP_pressure;BME280_temperature;BME280_humidity;BME280_pressure;Samples;Min_cycle;Max_cycle;Signal;HPM_P1;HPM_P2
2021/03/20 04:14:36;;;;;;;0.60;0.60;;;1.40;99.90;;;;;;5092076;28;20415;-64
2021/03/20 04:17:18;;;;;;;1.20;0.70;;;1.40;99.90;;;;;;5092844;28;20028;-64
2021/03/20 04:19:47;;;;;;;0.60;0.60;;;1.50;99.90;;;;;;5092724;28;20046;-65
2021/03/20 04:22:36;;;;;;;0.63;0.63;;;1.40;99.90;;;;;;5093095;28;20024;-65
2021/03/20 04:25:14;;;;;;;0.70;0.70;;;1.30;99.90;;;;;;5092802;28;20067;-66
2021/03/20 04:27:44;;;;;;;0.77;0.60;;;1.30;99.90;;;;;;5092675;28;20031;-65
2021/03/20 04:30:18;;;;;;;0.77;0.68;;;1.30;99.90;;;;;;5093079;28;20020;-65
2021/03/20 04:32:46;;;;;;;1.20;0.80;;;1.30;99.90;;;;;;5092782;28;20028;-65
2021/03/20 04:35:48;;;;;;;2.03;0.57;;;1.20;99.90;;;;;;5092941;28;20028;-65
2021/03/20 04:38:14;;;;;;;1.55;0.57;;;1.20;99.90;;;;;;5092866;28;20183;-66
2021/03/20 04:40:47;;;;;;;3.03;0.70;;;1.10;99.90;;;;;;5092522;28;20527;-66
2021/03/20 04:43:16;;;;;;;2.80;0.70;;;1.10;99.90;;;;;;5074399;28;20025;-65
2021/03/20 04:45:59;;;;;;;0.60;0.60;;;1.00;99.90;;;;;;5092580;28;20063;-65
2021/03/20 04:48:31;;;;;;;0.50;0.50;;;1.00;99.90;;;;;;5092638;28;20089;-65
2021/03/20 04:51:14;;;;;;;1.20;0.70;;;1.10;99.90;;;;;;5092389;28;20495;-65
2021/03/20 04:53:40;;;;;;;0.60;0.60;;;1.10;99.90;;;;;;5092427;28;20020;-65
2021/03/20 04:56:09;;;;;;;1.27;0.93;;;1.20;99.90;;;;;;5074365;28;20032;-65
2021/03/20 04:58:37;;;;;;;0.60;0.60;;;1.20;99.90;;;;;;5091755;28;20020;-65
2021/03/20 05:01:15;;;;;;;0.93;0.70;;;1.20;99.90;;;;;;5091413;28;20028;-64
2021/03/20 05:03:49;;;;;;;0.50;0.50;;;1.20;99.90;;;;;;5092253;28;20032;-64
2021/03/20 05:06:21;;;;;;;0.63;0.63;;;1.20;99.90;;;;;;5092460;28;20032;-64
2021/03/20 05:08:57;;;;;;;0.63;0.63;;;1.20;99.90;;;;;;5092291;28;20020;-65
2021/03/20 05:11:52;;;;;;;0.70;0.70;;;1.20;99.90;;;;;;5092400;28;20024;-64
2021/03/20 05:14:40;;;;;;;0.70;0.70;;;1.10;99.90;;;;;;5091941;28;20040;-65
2021/03/20 05:17:11;;;;;;;0.60;0.60;;;1.10;99.90;;;;;;5092328;28;20097;-65
2021/03/20 05:19:37;;;;;;;0.68;0.65;;;1.00;99.90;;;;;;5091877;28;20027;-64
2021/03/20 05:22:04;;;;;;;0.75;0.75;;;1.10;99.90;;;;;;5092056;28;20028;-64
2021/03/20 05:24:35;;;;;;;0.70;0.70;;;1.10;99.90;;;;;;5092001;28;20039;-64
2021/03/20 05:27:03;;;;;;;0.68;0.68;;;1.20;99.90;;;;;;5092231;28;20036;-65
2021/03/20 05:29:29;;;;;;;1.08;0.70;;;1.30;99.90;;;;;;5092217;28;20095;-65
2021/03/20 05:31:57;;;;;;;0.70;0.70;;;1.30;99.90;;;;;;5073724;28;20024;-69
2021/03/20 05:34:35;;;;;;;0.70;0.70;;;1.40;99.90;;;;;;5092007;28;20024;-70
2021/03/20 05:37:02;;;;;;;1.02;0.70;;;1.90;99.90;;;;;;5092177;28;20103;-69
2021/03/20 05:39:28;;;;;;;2.67;0.90;;;2.00;99.90;;;;;;5091793;28;20042;-69
2021/03/20 05:42:00;;;;;;;2.03;0.70;;;1.90;99.90;;;;;;5091668;28;20024;-69
2021/03/20 05:44:53;;;;;;;0.80;0.80;;;1.80;99.90;;;;;;5091198;28;20471;-66
2021/03/20 05:47:30;;;;;;;1.00;0.60;;;1.70;99.90;;;;;;5089592;28;20552;-69
2021/03/20 05:50:07;;;;;;;3.35;0.85;;;1.60;99.90;;;;;;5090950;28;20555;-68
2021/03/20 05:53:04;;;;;;;7.82;1.50;;;1.60;99.90;;;;;;5090431;28;20501;-67
2021/03/20 05:56:23;;;;;;;2.90;1.35;;;1.60;99.90;;;;;;5090343;28;20027;-68
2021/03/20 05:59:18;;;;;;;9.48;2.42;;;1.60;99.90;;;;;;5016920;28;20034;-68
2021/03/20 06:01:49;;;;;;;6.43;3.13;;;1.60;99.90;;;;;;5020462;28;20185;-69
2021/03/20 06:04:41;;;;;;;7.63;2.88;;;1.60;99.90;;;;;;5074743;28;20036;-69
2021/03/20 06:07:16;;;;;;;1.60;0.90;;;1.60;99.90;;;;;;5089330;28;20032;-68
2021/03/20 06:10:03;;;;;;;0.80;0.80;;;1.60;99.90;;;;;;5072821;28;20501;-68
2021/03/20 06:12:56;;;;;;;1.42;0.90;;;1.50;99.90;;;;;;5094263;28;20168;-70
2021/03/20 06:15:22;;;;;;;1.23;1.13;;;1.50;99.90;;;;;;5093347;28;20483;-71
2021/03/20 06:18:38;;;;;;;3.97;1.30;;;1.50;99.90;;;;;;5094376;28;20036;-71
2021/03/20 06:21:13;;;;;;;1.33;1.17;;;1.50;99.90;;;;;;5019776;28;20396;-69
2021/03/20 06:23:47;;;;;;;2.42;1.00;;;1.50;99.90;;;;;;5074989;28;20029;-67
2021/03/20 06:26:35;;;;;;;2.15;1.10;;;1.60;99.90;;;;;;5074864;28;20068;-69
2021/03/20 06:29:11;;;;;;;1.30;1.20;;;1.60;99.90;;;;;;5074661;28;20391;-67
2021/03/20 06:31:44;;;;;;;1.05;0.90;;;1.80;99.90;;;;;;5074766;28;20072;-67
2021/03/20 06:34:18;;;;;;;0.60;0.60;;;2.30;99.90;;;;;;5075031;28;20033;-67
2021/03/20 06:36:49;;;;;;;2.05;0.57;;;2.40;99.90;;;;;;5074544;28;20056;-67
2021/03/20 06:39:20;;;;;;;0.77;0.77;;;2.20;99.90;;;;;;5074565;28;20036;-67
2021/03/20 06:41:56;;;;;;;0.63;0.63;;;2.10;99.90;;;;;;5074869;28;20047;-68
2021/03/20 06:44:27;;;;;;;1.13;0.70;;;2.00;99.90;;;;;;5074685;28;20361;-68
2021/03/20 06:46:53;;;;;;;0.80;0.65;;;1.90;99.90;;;;;;5056638;28;20032;-68
2021/03/20 06:49:25;;;;;;;1.40;0.90;;;2.00;99.90;;;;;;5074667;28;20027;-68
2021/03/20 06:51:53;;;;;;;0.80;0.80;;;2.00;99.90;;;;;;5074497;28;20020;-68
2021/03/20 06:54:21;;;;;;;3.53;0.90;;;2.00;99.90;;;;;;5074353;28;20032;-68
2021/03/20 06:56:49;;;;;;;1.35;0.88;;;2.00;99.90;;;;;;5074166;28;20056;-67
2021/03/20 06:59:15;;;;;;;0.98;0.90;;;2.00;99.90;;;;;;5074193;28;20025;-69
2021/03/20 07:02:01;;;;;;;0.90;0.90;;;2.10;99.90;;;;;;5073996;28;20032;-69
2021/03/20 07:04:29;;;;;;;1.42;1.00;;;2.00;99.90;;;;;;5074179;28;20021;-70
2021/03/20 07:07:13;;;;;;;1.00;0.93;;;2.40;99.90;;;;;;5073946;28;20037;-70
2021/03/20 07:09:41;;;;;;;4.43;0.70;;;3.30;99.90;;;;;;5092418;28;20051;-70
2021/03/20 07:12:14;;;;;;;0.93;0.80;;;3.30;99.90;;;;;;5093670;28;20016;-69
2021/03/20 07:14:52;;;;;;;3.00;0.80;;;3.00;99.90;;;;;;5091248;28;20044;-67
2021/03/20 07:17:29;;;;;;;1.05;0.80;;;2.80;99.90;;;;;;5094219;28;20068;-68
2021/03/20 07:19:57;;;;;;;0.70;0.70;;;2.70;99.90;;;;;;5093752;28;20032;-67
2021/03/20 07:22:36;;;;;;;0.68;0.57;;;2.70;99.90;;;;;;5093723;28;20024;-75
2021/03/20 07:25:30;;;;;;;0.40;0.40;;;3.00;99.90;;;;;;5093866;28;20468;-69
2021/03/20 07:28:12;;;;;;;0.50;0.50;;;3.20;99.90;;;;;;5094180;28;20427;-69
2021/03/20 07:31:09;;;;;;;0.40;0.40;;;3.10;99.90;;;;;;5075701;28;20479;-72
2021/03/20 07:33:42;;;;;;;0.60;0.60;;;3.00;99.90;;;;;;5094145;28;20028;-68
2021/03/20 07:36:19;;;;;;;1.45;0.88;;;3.00;99.90;;;;;;5093530;28;20032;-67
2021/03/20 07:39:02;;;;;;;0.50;0.50;;;3.00;99.90;;;;;;5073355;28;20021;-68
2021/03/20 07:41:28;;;;;;;0.68;0.68;;;3.00;99.90;;;;;;5074529;28;20032;-67
2021/03/20 07:43:58;;;;;;;0.60;0.60;;;3.00;99.90;;;;;;5073228;28;20016;-66
2021/03/20 07:46:25;;;;;;;0.50;0.50;;;3.10;99.90;;;;;;5085274;28;20083;-68
2021/03/20 07:49:01;;;;;;;0.50;0.50;;;3.10;99.90;;;;;;5092343;28;20107;-70
2021/03/20 07:51:26;;;;;;;0.50;0.50;;;3.10;99.90;;;;;;5091953;28;20027;-67
2021/03/20 07:53:53;;;;;;;0.50;0.50;;;3.20;99.90;;;;;;5093268;28;20384;-67
2021/03/20 07:56:36;;;;;;;0.65;0.50;;;3.20;99.90;;;;;;5092878;28;20491;-70
2021/03/20 07:59:19;;;;;;;0.50;0.50;;;3.20;99.90;;;;;;5092772;28;20027;-68
2021/03/20 08:01:58;;;;;;;0.60;0.50;;;3.30;99.90;;;;;;5092846;28;20020;-69
2021/03/20 08:05:03;;;;;;;0.50;0.50;;;3.40;99.90;;;;;;5093101;28;20031;-70
2021/03/20 08:07:44;;;;;;;0.50;0.50;;;3.40;99.90;;;;;;5092913;28;20036;-70
2021/03/20 08:10:20;;;;;;;0.52;0.52;;;3.40;99.90;;;;;;5092915;28;20022;-72
2021/03/20 08:13:00;;;;;;;0.75;0.63;;;3.40;99.90;;;;;;5092790;28;20073;-70
2021/03/20 08:15:39;;;;;;;0.88;0.60;;;3.40;99.90;;;;;;5092657;28;20048;-70
2021/03/20 08:18:23;;;;;;;1.50;1.00;;;3.40;99.90;;;;;;5092065;28;20537;-70
2021/03/20 08:21:12;;;;;;;0.90;0.90;;;3.40;99.90;;;;;;5091948;28;20020;-70
2021/03/20 08:24:06;;;;;;;0.90;0.68;;;3.40;99.90;;;;;;5082934;28;20039;-70
2021/03/20 08:26:46;;;;;;;0.50;0.50;;;3.40;99.90;;;;;;5092774;28;20114;-70
2021/03/20 08:29:40;;;;;;;0.50;0.50;;;3.40;99.90;;;;;;5092187;28;20027;-69
2021/03/20 08:32:27;;;;;;;0.40;0.40;;;3.40;99.90;;;;;;5091713;28;20024;-70
2021/03/20 08:34:58;;;;;;;0.40;0.40;;;3.40;99.90;;;;;;5089402;28;20383;-71
2021/03/20 08:38:03;;;;;;;0.55;0.55;;;3.40;99.90;;;;;;5089533;28;20098;-71
2021/03/20 08:40:58;;;;;;;0.52;0.52;;;3.50;99.90;;;;;;4990613;28;20125;-71
2021/03/20 08:44:08;;;;;;;2.17;0.57;;;3.50;99.90;;;;;;4994798;28;20030;-67
2021/03/20 08:47:11;;;;;;;0.57;0.57;;;3.50;99.90;;;;;;5035956;28;20040;-68
2021/03/20 08:49:54;;;;;;;0.50;0.50;;;3.50;99.90;;;;;;5071837;28;20024;-66
2021/03/20 08:52:48;;;;;;;0.43;0.43;;;3.60;99.90;;;;;;5081342;28;20024;-68
2021/03/20 08:55:32;;;;;;;0.50;0.50;;;3.60;99.90;;;;;;5091398;28;20074;-67
2021/03/20 08:58:28;;;;;;;0.50;0.50;;;3.70;99.90;;;;;;5087925;28;20388;-67
2021/03/20 09:01:26;;;;;;;0.50;0.50;;;3.70;99.90;;;;;;5091064;28;20020;-68
2021/03/20 09:03:57;;;;;;;0.47;0.47;;;3.80;99.90;;;;;;5066688;28;20124;-68
2021/03/20 09:06:25;;;;;;;;;;;3.80;99.90;;;;;;5092530;28;20044;-69
2021/03/20 09:08:54;;;;;;;0.50;0.50;;;3.90;99.90;;;;;;5092173;28;20127;-69
2021/03/20 09:11:23;;;;;;;0.50;0.50;;;3.90;99.90;;;;;;5092066;28;20479;-69
2021/03/20 09:13:56;;;;;;;0.50;0.50;;;3.90;99.90;;;;;;5091768;28;20025;-70
2021/03/20 09:16:46;;;;;;;0.30;0.30;;;4.00;99.90;;;;;;5091946;28;20656;-71
2021/03/20 09:19:40;;;;;;;0.47;0.47;;;4.10;99.90;;;;;;5092002;28;20475;-72
2021/03/20 09:22:13;;;;;;;0.50;0.50;;;4.10;99.90;;;;;;5089416;28;20466;-71
2021/03/20 09:25:11;;;;;;;0.45;0.45;;;4.10;99.90;;;;;;5092154;28;20024;-71
2021/03/20 09:28:14;;;;;;;0.50;0.50;;;4.20;99.90;;;;;;5091365;28;20522;-70
2021/03/20 09:30:46;;;;;;;0.50;0.50;;;4.20;99.90;;;;;;5091905;28;20028;-71
2021/03/20 09:33:27;;;;;;;0.40;0.40;;;4.20;99.90;;;;;;5091938;28;20058;-70
2021/03/20 09:35:59;;;;;;;1.33;0.70;;;4.30;99.90;;;;;;5091855;28;20016;-71
2021/03/20 09:38:34;;;;;;;1.55;0.50;;;4.30;99.90;;;;;;5091794;28;20061;-72
2021/03/20 09:41:08;;;;;;;0.63;0.60;;;4.40;99.90;;;;;;5091722;28;20433;-72
2021/03/20 09:43:39;;;;;;;0.40;0.40;;;4.50;99.90;;;;;;5092006;28;20422;-67
2021/03/20 09:46:38;;;;;;;0.50;0.50;;;4.70;99.90;;;;;;5092280;28;20479;-71
2021/03/20 09:49:07;;;;;;;0.50;0.43;;;4.70;99.90;;;;;;5095415;28;20042;-69
2021/03/20 09:51:48;;;;;;;0.47;0.47;;;4.60;99.90;;;;;;5095008;28;20050;-71
2021/03/20 09:54:23;;;;;;;0.50;0.50;;;4.60;99.90;;;;;;5094405;28;20028;-70
2021/03/20 09:57:22;;;;;;;0.50;0.50;;;4.60;99.90;;;;;;5094711;28;20024;-70
2021/03/20 09:59:50;;;;;;;0.43;0.43;;;4.60;99.90;;;;;;5094612;28;20016;-67
2021/03/20 10:02:15;;;;;;;0.43;0.43;;;4.60;99.90;;;;;;5092268;28;20016;-70
2021/03/20 10:04:57;;;;;;;0.40;0.40;;;4.60;99.90;;;;;;5094966;28;20115;-70
2021/03/20 10:07:23;;;;;;;0.40;0.40;;;4.60;99.90;;;;;;5093238;28;20499;-70
2021/03/20 10:10:00;;;;;;;0.40;0.40;;;4.60;99.90;;;;;;5094730;28;20115;-70
2021/03/20 10:12:44;;;;;;;0.60;0.60;;;4.70;99.90;;;;;;5093586;28;20494;-70
2021/03/20 10:15:16;;;;;;;0.60;0.60;;;4.70;99.90;;;;;;5093664;28;20059;-70
2021/03/20 10:18:03;;;;;;;0.63;0.63;;;4.70;99.90;;;;;;5075244;28;20020;-66
2021/03/20 10:20:42;;;;;;;0.50;0.50;;;4.70;99.90;;;;;;5074831;28;20016;-67
2021/03/20 10:23:29;;;;;;;0.57;0.57;;;4.70;99.90;;;;;;5075053;28;20365;-66
2021/03/20 10:25:58;;;;;;;0.50;0.50;;;4.70;99.90;;;;;;5074574;28;20021;-66
2021/03/20 10:28:30;;;;;;;0.50;0.50;;;4.70;99.90;;;;;;5056833;28;20043;-66
2021/03/20 10:31:01;;;;;;;0.43;0.43;;;4.80;99.90;;;;;;5074613;28;20028;-66
2021/03/20 10:33:33;;;;;;;0.52;0.52;;;4.80;99.90;;;;;;5074670;28;20028;-66
2021/03/20 10:36:14;;;;;;;0.40;0.40;;;4.80;99.90;;;;;;5074736;28;20063;-66
2021/03/20 10:38:41;;;;;;;0.50;0.50;;;4.80;99.90;;;;;;5074474;28;20408;-66
2021/03/20 10:41:21;;;;;;;0.47;0.47;;;4.80;99.90;;;;;;5074682;28;20023;-67
2021/03/20 10:44:00;;;;;;;0.50;0.50;;;4.90;99.90;;;;;;5074883;28;20062;-68
2021/03/20 10:46:30;;;;;;;0.63;0.63;;;4.90;99.90;;;;;;5074289;28;20076;-67
2021/03/20 10:48:58;;;;;;;0.43;0.43;;;5.00;99.90;;;;;;5074377;28;20025;-67
2021/03/20 10:51:27;;;;;;;0.85;0.63;;;5.00;99.90;;;;;;5079413;28;20032;-67
2021/03/20 10:53:58;;;;;;;0.50;0.50;;;5.10;99.90;;;;;;5091546;28;20012;-67
2021/03/20 10:56:29;;;;;;;0.60;0.60;;;5.10;99.90;;;;;;5094237;28;20415;-68
2021/03/20 10:58:55;;;;;;;0.95;0.57;;;5.10;99.90;;;;;;5090355;28;20475;-67
2021/03/20 11:01:35;;;;;;;0.73;0.63;;;5.10;99.90;;;;;;5093994;28;20024;-68
2021/03/20 11:04:01;;;;;;;0.88;0.75;;;5.10;99.90;;;;;;5092291;28;20061;-69
2021/03/20 11:06:27;;;;;;;1.00;0.60;;;5.10;99.90;;;;;;5094071;28;20131;-68
2021/03/20 11:09:26;;;;;;;1.25;0.80;;;5.00;99.90;;;;;;5094039;28;20039;-69
2021/03/20 11:12:05;;;;;;;1.98;0.60;;;5.00;99.90;;;;;;5057332;28;20387;-68
2021/03/20 11:14:31;;;;;;;1.45;0.85;;;5.00;99.90;;;;;;5093746;28;20044;-69
2021/03/20 11:17:06;;;;;;;0.80;0.50;;;5.00;99.90;;;;;;5094042;28;20020;-69
2021/03/20 11:19:35;;;;;;;0.90;0.70;;;5.00;99.90;;;;;;5094103;28;20082;-70
2021/03/20 11:22:14;;;;;;;1.00;0.70;;;5.00;99.90;;;;;;5093835;28;20025;-69
2021/03/20 11:24:40;;;;;;;1.17;0.63;;;5.10;99.90;;;;;;5093938;28;20024;-70
2021/03/20 11:27:33;;;;;;;0.95;0.80;;;5.10;99.90;;;;;;5094042;28;20032;-69
2021/03/20 11:30:03;;;;;;;2.00;0.70;;;5.20;99.90;;;;;;5091271;28;20039;-70
2021/03/20 11:32:37;;;;;;;3.78;0.85;;;5.20;99.90;;;;;;5093355;28;20032;-70
2021/03/20 11:35:12;;;;;;;1.08;0.60;;;5.30;99.90;;;;;;5093658;28;20506;-68
2021/03/20 11:37:38;;;;;;;1.10;0.80;;;5.30;99.90;;;;;;5093791;28;20063;-68
2021/03/20 11:40:07;;;;;;;2.03;1.00;;;5.40;99.90;;;;;;5093463;28;20132;-68
2021/03/20 11:42:39;;;;;;;11.60;0.95;;;5.40;99.90;;;;;;5093651;28;20024;-68
2021/03/20 11:45:34;;;;;;;4.40;0.80;;;5.40;99.90;;;;;;5093332;28;20024;-68
2021/03/20 11:48:11;;;;;;;6.60;0.90;;;5.50;99.90;;;;;;5091643;28;20500;-68
2021/03/20 11:50:37;;;;;;;6.97;0.90;;;5.50;99.90;;;;;;5093444;28;20040;-70
2021/03/20 11:53:12;;;;;;;6.78;0.70;;;5.50;99.90;;;;;;5093531;28;20483;-70
2021/03/20 11:55:40;;;;;;;7.00;1.10;;;5.50;99.90;;;;;;5093375;28;20048;-71
2021/03/20 11:58:11;;;;;;;7.95;1.00;;;5.50;99.90;;;;;;5093227;28;20048;-71
2021/03/20 12:00:46;;;;;;;6.65;0.93;;;5.50;99.90;;;;;;5093283;28;20027;-71
2021/03/20 12:03:21;;;;;;;6.13;0.80;;;5.60;99.90;;;;;;5093396;28;20063;-71
2021/03/20 12:05:48;;;;;;;5.75;0.65;;;5.60;99.90;;;;;;5092854;28;20028;-71
2021/03/20 12:08:33;;;;;;;0.85;0.50;;;5.60;99.90;;;;;;5093038;28;20024;-71
2021/03/20 12:11:09;;;;;;;0.90;0.55;;;5.60;99.90;;;;;;5093180;28;20360;-70
2021/03/20 12:13:53;;;;;;;1.40;0.63;;;5.70;99.90;;;;;;5092980;28;20026;-71
2021/03/20 12:16:38;;;;;;;1.67;0.70;;;5.70;99.90;;;;;;5092679;28;20067;-71
2021/03/20 12:19:08;;;;;;;3.90;0.80;;;5.70;99.90;;;;;;5092796;28;20020;-68
2021/03/20 12:22:05;;;;;;;6.10;1.15;;;5.70;99.90;;;;;;5094010;28;20043;-69
2021/03/20 12:24:44;;;;;;;1.95;1.40;;;5.90;99.90;;;;;;5092974;28;20101;-69
2021/03/20 12:27:33;;;;;;;4.70;0.85;;;6.10;99.90;;;;;;5074672;28;20042;-70
2021/03/20 12:30:14;;;;;;;1.23;0.60;;;5.90;99.90;;;;;;5092793;28;20032;-73
2021/03/20 12:32:45;;;;;;;0.40;0.40;;;5.90;99.90;;;;;;5092839;28;20020;-72
2021/03/20 12:35:16;;;;;;;0.40;0.40;;;6.00;99.90;;;;;;5092924;28;20024;-71
2021/03/20 12:37:42;;;;;;;0.45;0.45;;;5.90;99.90;;;;;;5091401;28;20507;-71
2021/03/20 12:40:09;;;;;;;0.50;0.50;;;5.90;99.90;;;;;;5092263;28;20043;-70
2021/03/20 12:42:34;;;;;;;0.40;0.40;;;5.80;99.90;;;;;;5092545;28;20024;-69
2021/03/20 12:45:00;;;;;;;0.60;0.60;;;5.80;99.90;;;;;;5092530;28;20495;-69
2021/03/20 12:47:26;;;;;;;1.27;0.50;;;5.90;99.90;;;;;;5092548;28;20044;-69
2021/03/20 12:49:51;;;;;;;2.22;0.50;;;5.90;99.90;;;;;;5092082;28;20545;-70
2021/03/20 12:52:21;;;;;;;0.80;0.60;;;5.90;99.90;;;;;;5092199;28;20043;-70
2021/03/20 12:54:49;;;;;;;5.40;1.13;;;5.90;99.90;;;;;;5092245;28;20020;-71
2021/03/20 12:57:23;;;;;;;2.08;0.80;;;5.90;99.90;;;;;;5092061;28;20048;-69
2021/03/20 12:59:48;;;;;;;2.28;0.60;;;6.00;99.90;;;;;;5074157;28;20027;-70
2021/03/20 13:02:15;;;;;;;1.20;0.70;;;7.20;99.90;;;;;;5092017;28;20036;-72
2021/03/20 13:04:41;;;;;;;0.60;0.60;;;7.20;99.90;;;;;;5092089;28;20035;-69
2021/03/20 13:07:08;;;;;;;0.80;0.43;;;6.90;99.90;;;;;;5091953;28;20032;-69
2021/03/20 13:09:35;;;;;;;0.50;0.50;;;6.60;99.90;;;;;;5091866;28;20039;-70
2021/03/20 13:12:01;;;;;;;0.60;0.60;;;6.50;99.90;;;;;;5091861;28;20024;-70
2021/03/20 13:14:27;;;;;;;0.50;0.50;;;6.40;99.90;;;;;;5091711;28;20048;-70
2021/03/20 13:16:53;;;;;;;1.67;0.60;;;6.30;99.90;;;;;;5092074;28;20024;-70
2021/03/20 13:19:19;;;;;;;1.27;0.60;;;6.20;99.90;;;;;;5092002;28;20054;-69
2021/03/20 13:21:45;;;;;;;1.48;0.70;;;6.20;99.90;;;;;;5091243;28;20081;-71
2021/03/20 13:24:11;;;;;;;3.78;0.75;;;6.10;99.90;;;;;;5091771;28;20024;-71
2021/03/20 13:26:37;;;;;;;4.63;1.25;;;6.10;99.90;;;;;;5093759;28;20088;-71
2021/03/20 13:29:03;;;;;;;4.13;1.00;;;6.10;99.90;;;;;;5091828;28;20107;-70
2021/03/20 13:31:30;;;;;;;3.35;1.00;;;6.00;99.90;;;;;;5073838;28;20154;-70
2021/03/20 13:33:56;;;;;;;3.65;0.77;;;6.00;99.90;;;;;;5091505;28;20016;-71
2021/03/20 13:36:22;;;;;;;1.95;0.40;;;5.90;99.90;;;;;;5110990;28;20072;-71
2021/03/20 13:38:48;;;;;;;3.30;0.80;;;5.90;99.90;;;;;;5097372;28;20103;-70
2021/03/20 13:41:14;;;;;;;1.05;0.75;;;5.90;99.90;;;;;;5091721;28;20020;-70
2021/03/20 13:43:40;;;;;;;2.30;0.70;;;5.80;99.90;;;;;;5091997;28;20529;-73
2021/03/20 13:46:05;;;;;;;0.68;0.65;;;5.80;99.90;;;;;;5091638;28;20035;-73
2021/03/20 13:48:33;;;;;;;3.70;0.55;;;5.80;99.90;;;;;;5092212;28;20028;-73
2021/03/20 13:50:59;;;;;;;6.05;0.70;;;5.80;99.90;;;;;;5091997;28;20023;-73
2021/03/20 13:53:26;;;;;;;6.45;0.77;;;5.80;99.90;;;;;;5091864;28;20040;-73
2021/03/20 13:55:58;;;;;;;2.30;0.50;;;5.80;99.90;;;;;;5092210;28;20443;-73
2021/03/20 13:58:24;;;;;;;3.33;0.80;;;5.80;99.90;;;;;;5091927;28;20012;-73
2021/03/20 14:00:55;;;;;;;0.70;0.70;;;5.80;99.90;;;;;;5091671;28;20020;-73
2021/03/20 14:03:24;;;;;;;1.73;0.60;;;5.80;99.90;;;;;;5091739;28;20020;-72
2021/03/20 14:05:51;;;;;;;0.60;0.50;;;5.80;99.90;;;;;;5091280;28;20040;-72
2021/03/20 14:08:18;;;;;;;0.50;0.50;;;5.80;99.90;;;;;;5091441;28;20495;-71
2021/03/20 14:10:44;;;;;;;0.85;0.50;;;5.70;99.90;;;;;;5091560;28;20032;-72
2021/03/20 14:13:12;;;;;;;1.58;0.60;;;5.80;99.90;;;;;;5091463;28;20468;-71
2021/03/20 14:15:38;;;;;;;0.93;0.60;;;5.80;99.90;;;;;;5091424;28;20048;-72
2021/03/20 14:18:08;;;;;;;1.95;0.50;;;5.80;99.90;;;;;;5091726;28;20050;-71
2021/03/20 14:20:40;;;;;;;0.52;0.50;;;5.80;99.90;;;;;;5091798;28;20442;-71
2021/03/20 14:23:08;;;;;;;3.75;0.63;;;5.80;99.90;;;;;;5091418;28;20028;-71
2021/03/20 14:25:35;;;;;;;0.73;0.60;;;5.80;99.90;;;;;;5091427;28;20032;-71
2021/03/20 14:28:01;;;;;;;1.70;0.70;;;5.80;99.90;;;;;;5091669;28;20024;-72
2021/03/20 14:30:31;;;;;;;1.75;0.50;;;5.70;99.90;;;;;;5091294;28;20024;-72
2021/03/20 14:32:57;;;;;;;0.55;0.55;;;5.70;99.90;;;;;;5093436;28;20031;-71
2021/03/20 14:35:23;;;;;;;1.38;0.52;;;5.70;99.90;;;;;;5095007;28;20028;-72
2021/03/20 14:37:49;;;;;;;1.65;0.60;;;5.60;99.90;;;;;;5094920;28;20387;-72
2021/03/20 14:40:17;;;;;;;2.28;0.55;;;5.60;99.90;;;;;;5094947;28;20521;-72
2021/03/20 14:42:44;;;;;;;1.70;0.98;;;5.60;99.90;;;;;;5094973;28;20115;-71
2021/03/20 14:45:10;;;;;;;3.58;0.52;;;5.60;99.90;;;;;;5094598;28;20027;-71
2021/03/20 14:47:36;;;;;;;1.65;0.70;;;5.60;99.90;;;;;;5094871;28;20034;-70
2021/03/20 14:50:04;;;;;;;3.42;0.75;;;5.60;99.90;;;;;;5094826;28;20024;-70
2021/03/20 14:52:32;;;;;;;0.45;0.45;;;5.60;99.90;;;;;;5094757;28;20020;-71
2021/03/20 14:54:58;;;;;;;0.88;0.60;;;5.60;99.90;;;;;;5094666;28;20058;-71
2021/03/20 14:57:24;;;;;;;2.95;0.68;;;5.60;99.90;;;;;;5094506;28;20106;-70
2021/03/20 14:59:49;;;;;;;1.63;0.60;;;5.60;99.90;;;;;;5094386;28;20060;-71
2021/03/20 15:02:15;;;;;;;1.48;0.90;;;5.60;99.90;;;;;;5094701;28;20020;-70
2021/03/20 15:04:41;;;;;;;1.48;0.70;;;5.60;99.90;;;;;;5094443;28;20056;-71
2021/03/20 15:07:06;;;;;;;0.65;0.65;;;5.60;99.90;;;;;;5094174;28;20467;-71
2021/03/20 15:09:32;;;;;;;5.07;0.90;;;5.60;99.90;;;;;;5094360;28;20026;-71
2021/03/20 15:11:58;;;;;;;0.80;0.80;;;5.60;99.90;;;;;;5094300;28;20031;-71
2021/03/20 15:14:23;;;;;;;2.88;0.90;;;5.60;99.90;;;;;;5094343;28;20036;-70
2021/03/20 15:16:49;;;;;;;0.90;0.80;;;5.60;99.90;;;;;;5094271;28;20372;-72
2021/03/20 15:19:15;;;;;;;0.75;0.70;;;5.60;99.90;;;;;;5094242;28;20035;-70
2021/03/20 15:21:41;;;;;;;2.05;0.65;;;5.60;99.90;;;;;;5094273;28;20028;-71
2021/03/20 15:24:06;;;;;;;2.10;0.80;;;5.60;99.90;;;;;;5094116;28;20087;-71
2021/03/20 15:26:32;;;;;;;1.25;0.70;;;5.60;99.90;;;;;;5094292;28;20109;-71
2021/03/20 15:28:58;;;;;;;1.00;0.80;;;5.60;99.90;;;;;;5093982;28;20028;-70
2021/03/20 15:31:26;;;;;;;0.70;0.70;;;5.60;99.90;;;;;;5094025;28;20032;-70
2021/03/20 15:33:52;;;;;;;3.10;0.93;;;5.70;99.90;;;;;;5094227;28;20157;-71
2021/03/20 15:36:18;;;;;;;6.05;0.85;;;5.70;99.90;;;;;;5093822;28;20034;-71
2021/03/20 15:38:46;;;;;;;2.60;0.90;;;5.70;99.90;;;;;;5093804;28;20105;-70
2021/03/20 15:41:12;;;;;;;5.20;1.42;;;5.80;99.90;;;;;;5093792;28;20028;-70
2021/03/20 15:43:38;;;;;;;2.92;1.00;;;5.70;99.90;;;;;;5093146;28;20020;-70
2021/03/20 15:46:08;;;;;;;4.00;0.77;;;5.70;99.90;;;;;;5093430;28;20379;-71
2021/03/20 15:48:35;;;;;;;0.80;0.80;;;5.70;99.90;;;;;;5094008;28;20066;-70
2021/03/20 15:51:04;;;;;;;1.35;0.80;;;5.70;99.90;;;;;;5093944;28;20035;-70
2021/03/20 15:53:30;;;;;;;0.70;0.70;;;5.70;99.90;;;;;;5093627;28;20050;-70
2021/03/20 15:55:58;;;;;;;2.28;0.75;;;5.70;99.90;;;;;;5093511;28;20052;-70
2021/03/20 15:58:27;;;;;;;0.60;0.60;;;5.70;99.90;;;;;;5093328;28;20028;-70
2021/03/20 16:00:58;;;;;;;1.95;0.60;;;5.70;99.90;;;;;;5093570;28;20081;-69
2021/03/20 16:03:25;;;;;;;0.63;0.50;;;5.60;99.90;;;;;;5093139;28;20054;-72
2021/03/20 16:05:52;;;;;;;3.15;0.80;;;5.60;99.90;;;;;;5093431;28;20041;-72
2021/03/20 16:08:26;;;;;;;1.33;0.73;;;5.50;99.90;;;;;;5093217;28;20027;-71
2021/03/20 16:10:53;;;;;;;2.72;0.65;;;5.50;99.90;;;;;;5074998;28;20524;-72
2021/03/20 16:13:21;;;;;;;2.72;1.00;;;5.50;99.90;;;;;;5093326;28;20077;-71
2021/03/20 16:15:47;;;;;;;1.10;0.57;;;5.50;99.90;;;;;;5089924;28;20458;-71
2021/03/20 16:18:14;;;;;;;3.95;0.70;;;5.50;99.90;;;;;;5093010;28;20036;-70
2021/03/20 16:20:43;;;;;;;2.10;0.70;;;5.50;99.90;;;;;;5093161;28;20111;-71
2021/03/20 16:23:15;;;;;;;10.00;4.85;;;5.50;99.90;;;;;;5093152;28;20063;-71
2021/03/20 16:25:41;;;;;;;1.80;1.13;;;5.50;99.90;;;;;;5090124;28;20103;-71
2021/03/20 16:28:10;;;;;;;0.60;0.57;;;5.40;99.90;;;;;;5092574;28;20032;-71
2021/03/20 16:30:48;;;;;;;0.65;0.60;;;5.50;99.90;;;;;;5092784;28;20115;-71
2021/03/20 16:33:18;;;;;;;1.08;0.70;;;5.60;99.90;;;;;;5092809;28;20027;-72
2021/03/20 16:35:45;;;;;;;0.77;0.63;;;5.70;99.90;;;;;;5092742;28;20024;-71
2021/03/20 16:38:13;;;;;;;0.50;0.50;;;5.80;99.90;;;;;;5092827;28;20047;-72
2021/03/20 16:40:41;;;;;;;0.60;0.60;;;5.80;99.90;;;;;;5092640;28;20032;-72
2021/03/20 16:43:08;;;;;;;0.40;0.40;;;5.90;99.90;;;;;;5092851;28;20475;-72
2021/03/20 16:45:37;;;;;;;0.65;0.50;;;5.90;99.90;;;;;;5092576;28;20059;-72
2021/03/20 16:48:04;;;;;;;0.60;0.60;;;6.00;99.90;;;;;;5092672;28;20379;-72
2021/03/20 16:50:31;;;;;;;0.40;0.40;;;6.00;99.90;;;;;;5092466;28;20061;-71
2021/03/20 16:52:56;;;;;;;0.30;0.30;;;6.10;99.90;;;;;;5074409;28;20502;-71
2021/03/20 16:55:24;;;;;;;0.40;0.40;;;6.10;99.90;;;;;;5091643;28;20032;-72
2021/03/20 16:57:51;;;;;;;0.40;0.40;;;6.10;99.90;;;;;;5092327;28;20081;-71
2021/03/20 17:00:29;;;;;;;0.32;0.32;;;6.10;99.90;;;;;;5092403;28;20024;-71
2021/03/20 17:02:55;;;;;;;0.50;0.50;;;6.10;99.90;;;;;;5092729;28;20058;-71
2021/03/20 17:05:21;;;;;;;0.70;0.40;;;6.10;99.90;;;;;;5073980;28;20613;-71
2021/03/20 17:07:47;;;;;;;0.50;0.30;;;6.20;99.90;;;;;;5074215;28;20111;-70
2021/03/20 17:10:14;;;;;;;0.40;0.40;;;6.20;99.90;;;;;;5092083;28;20043;-70
2021/03/20 17:12:39;;;;;;;0.75;0.50;;;6.20;99.90;;;;;;5092749;28;20024;-70
2021/03/20 17:15:07;;;;;;;0.55;0.40;;;6.20;99.90;;;;;;5093866;28;20047;-70
2021/03/20 17:17:33;;;;;;;0.40;0.40;;;6.20;99.50;;;;;;5092060;28;20395;-71
2021/03/20 17:19:59;;;;;;;0.52;0.50;;;6.20;98.80;;;;;;5092278;28;20035;-71
2021/03/20 17:22:24;;;;;;;1.17;0.60;;;7.00;99.90;;;;;;5074101;28;20028;-71
2021/03/20 17:24:50;;;;;;;0.65;0.65;;;6.90;96.90;;;;;;5092129;28;20050;-68
2021/03/20 17:27:16;;;;;;;0.75;0.50;;;6.70;96.60;;;;;;5091952;28;20090;-67
2021/03/20 17:29:42;;;;;;;1.45;0.57;;;6.60;96.40;;;;;;5073957;28;20081;-68
2021/03/20 17:32:11;;;;;;;0.50;0.50;;;6.40;96.70;;;;;;5091845;28;20107;-68
2021/03/20 17:34:37;;;;;;;0.60;0.50;;;6.40;96.90;;;;;;5092473;28;20077;-68
2021/03/20 17:37:04;;;;;;;0.40;0.40;;;6.30;97.10;;;;;;5092181;28;20020;-67
2021/03/20 17:39:29;;;;;;;0.75;0.60;;;6.30;97.00;;;;;;5092153;28;20063;-66
2021/03/20 17:41:55;;;;;;;0.50;0.50;;;6.30;97.00;;;;;;5091762;28;20047;-67
2021/03/20 17:44:21;;;;;;;0.68;0.47;;;6.20;97.10;;;;;;5091503;28;20024;-67